Time;durP1;ratioP1;P1;durP2;ratioP2;P2;SDS_P1;SDS_P2;PMS_P1;PMS_P2;Temp;Humidity;BMP_temperature;BMP_pressure;BME280_temperature;BME280_humidity;BME280_pressure;Samples;Min_cycle;Max_cycle;Signal;HPM_P1;HPM_P2
2023/10/11 00:00:25;;;;;;;6.32;3.63;;;;;;;;;;6273847;22;20023;-79
2023/10/11 00:02:51;;;;;;;6.95;3.80;;;;;;;;;;6277235;22;20079;-79
2023/10/11 00:05:17;;;;;;;8.35;4.03;;;;;;;;;;6304029;22;20368;-78
2023/10/11 00:07:47;;;;;;;7.63;4.25;;;;;;;;;;6304914;22;20015;-78
2023/10/11 00:10:19;;;;;;;10.35;4.47;;;;;;;;;;6304049;22;20045;-78
2023/10/11 00:12:45;;;;;;;10.68;4.80;;;;;;;;;;6305877;22;20015;-78
2023/10/11 00:15:11;;;;;;;7.95;4.20;;;;;;;;;;6304412;22;20515;-78
2023/10/11 00:17:37;;;;;;;8.10;4.65;;;;;;;;;;6305331;22;20011;-78
2023/10/11 00:20:31;;;;;;;7.38;4.40;;;;;;;;;;6304141;22;20016;-79
2023/10/11 00:22:53;;;;;;;9.23;4.68;;;;;;;;;;6304778;22;20027;-79
2023/10/11 00:25:24;;;;;;;7.20;4.18;;;;;;;;;;6303507;22;20011;-79
2023/10/11 00:27:50;;;;;;;8.82;4.22;;;;;;;;;;6304943;22;20015;-78
2023/10/11 00:30:17;;;;;;;7.75;4.00;;;;;;;;;;6276948;22;20046;-78
2023/10/11 00:32:45;;;;;;;10.75;5.32;;;;;;;;;;6305414;22;20390;-79
2023/10/11 00:35:18;;;;;;;9.07;4.80;;;;;;;;;;6278347;22;20023;-79
2023/10/11 00:37:44;;;;;;;9.27;5.20;;;;;;;;;;6307026;22;20019;-78
2023/10/11 00:40:13;;;;;;;8.75;5.00;;;;;;;;;;6306014;22;20288;-78
2023/10/11 00:42:40;;;;;;;9.48;5.20;;;;;;;;;;6253665;22;20011;-78
2023/10/11 00:45:08;;;;;;;7.75;5.07;;;;;;;;;;6278285;22;20011;-78
2023/10/11 00:47:40;;;;;;;9.32;5.32;;;;;;;;;;6305772;22;20090;-78
2023/10/11 00:50:08;;;;;;;7.78;4.80;;;;;;;;;;6305393;22;20019;-78
2023/10/11 00:52:34;;;;;;;11.23;5.43;;;;;;;;;;6277887;22;20072;-78
2023/10/11 00:55:07;;;;;;;11.73;6.22;;;;;;;;;;6277999;22;20011;-78
2023/10/11 00:57:33;;;;;;;8.85;5.45;;;;;;;;;;6306150;22;20106;-78
2023/10/11 00:59:59;;;;;;;8.55;5.85;;;;;;;;;;6278064;22;20019;-78
2023/10/11 01:02:27;;;;;;;11.10;7.35;;;;;;;;;;6277365;22;20436;-78
2023/10/11 01:04:53;;;;;;;8.88;5.65;;;;;;;;;;6304836;22;20018;-78
2023/10/11 01:07:20;;;;;;;11.75;5.75;;;;;;;;;;6304577;22;20514;-78
2023/10/11 01:09:47;;;;;;;11.15;6.97;;;;;;;;;;6306441;22;20375;-78
2023/10/11 01:12:13;;;;;;;15.93;7.28;;;;;;;;;;6305167;22;20068;-78
2023/10/11 01:14:56;;;;;;;11.90;6.55;;;;;;;;;;6306411;22;20019;-78
2023/10/11 01:17:23;;;;;;;14.90;6.70;;;;;;;;;;6305643;22;20483;-78
2023/10/11 01:19:52;;;;;;;12.93;6.13;;;;;;;;;;6305346;22;20011;-79
2023/10/11 01:22:21;;;;;;;12.32;7.20;;;;;;;;;;6278053;22;20102;-78
2023/10/11 01:24:48;;;;;;;10.38;6.60;;;;;;;;;;6305576;22;20011;-78
2023/10/11 01:27:17;;;;;;;12.75;6.95;;;;;;;;;;6278072;22;20534;-78
2023/10/11 01:29:43;;;;;;;12.63;6.45;;;;;;;;;;6306945;22;20440;-78
2023/10/11 01:32:12;;;;;;;11.25;6.70;;;;;;;;;;6305347;22;20034;-78
2023/10/11 01:34:38;;;;;;;13.00;7.13;;;;;;;;;;6305274;22;20015;-78
2023/10/11 01:37:06;;;;;;;13.20;7.30;;;;;;;;;;6283279;22;20459;-77
2023/10/11 01:39:32;;;;;;;12.00;7.32;;;;;;;;;;6290565;22;20033;-78
2023/10/11 01:41:59;;;;;;;12.40;7.88;;;;;;;;;;6278300;22;20046;-78
2023/10/11 01:44:25;;;;;;;13.60;7.68;;;;;;;;;;6278087;22;20064;-77
2023/10/11 01:46:51;;;;;;;16.13;7.78;;;;;;;;;;6277179;22;20352;-78
2023/10/11 01:49:17;;;;;;;11.80;7.00;;;;;;;;;;6278097;22;20019;-78
2023/10/11 01:51:46;;;;;;;15.95;8.05;;;;;;;;;;6305721;22;20011;-79
2023/10/11 01:54:15;;;;;;;11.30;7.20;;;;;;;;;;6305012;22;20015;-79
2023/10/11 01:56:41;;;;;;;19.85;8.02;;;;;;;;;;6278209;22;20452;-78
2023/10/11 01:59:07;;;;;;;16.20;7.53;;;;;;;;;;6304722;22;20019;-78
2023/10/11 02:01:39;;;;;;;14.93;7.20;;;;;;;;;;6276387;22;20026;-78
2023/10/11 02:04:10;;;;;;;14.82;7.65;;;;;;;;;;6304343;22;20040;-78
2023/10/11 02:06:38;;;;;;;15.57;7.70;;;;;;;;;;6278290;22;20068;-78
2023/10/11 02:09:04;;;;;;;11.77;7.78;;;;;;;;;;6305091;22;20015;-78
2023/10/11 02:11:31;;;;;;;15.05;6.85;;;;;;;;;;6304818;22;20025;-78
2023/10/11 02:14:00;;;;;;;15.10;6.85;;;;;;;;;;6304982;22;20018;-78
2023/10/11 02:16:28;;;;;;;15.38;7.68;;;;;;;;;;6305296;22;20014;-78
2023/10/11 02:19:00;;;;;;;13.05;7.25;;;;;;;;;;6305228;22;20011;-78
2023/10/11 02:21:29;;;;;;;15.73;7.82;;;;;;;;;;6305609;22;20016;-78
2023/10/11 02:23:57;;;;;;;13.98;7.22;;;;;;;;;;6304657;22;20535;-78
2023/10/11 02:26:31;;;;;;;11.15;7.18;;;;;;;;;;6304606;22;20012;-78
2023/10/11 02:29:00;;;;;;;13.20;7.65;;;;;;;;;;6303768;22;20007;-78
2023/10/11 02:31:29;;;;;;;14.52;6.85;;;;;;;;;;6276850;22;20015;-78
2023/10/11 02:34:04;;;;;;;13.75;6.93;;;;;;;;;;6276896;22;20086;-78
2023/10/11 02:36:35;;;;;;;13.70;7.53;;;;;;;;;;6305029;22;20086;-78
2023/10/11 02:39:05;;;;;;;12.80;7.30;;;;;;;;;;6304096;22;20015;-78
2023/10/11 02:41:32;;;;;;;11.35;7.55;;;;;;;;;;6277548;22;20340;-78
2023/10/11 02:43:58;;;;;;;13.40;8.32;;;;;;;;;;6304099;22;20011;-78
2023/10/11 02:46:25;;;;;;;13.77;7.13;;;;;;;;;;6277415;22;20153;-78
2023/10/11 02:49:05;;;;;;;14.25;7.75;;;;;;;;;;6277364;22;20007;-78
2023/10/11 02:51:32;;;;;;;15.10;7.90;;;;;;;;;;6277279;22;20087;-78
2023/10/11 02:53:59;;;;;;;14.40;8.52;;;;;;;;;;6304956;22;20015;-78
2023/10/11 02:56:25;;;;;;;11.60;7.35;;;;;;;;;;6303794;22;20440;-78
2023/10/11 02:58:52;;;;;;;14.27;7.75;;;;;;;;;;6304998;22;20015;-79
2023/10/11 03:01:20;;;;;;;16.27;7.45;;;;;;;;;;6276804;22;20022;-78
2023/10/11 03:03:52;;;;;;;13.48;7.35;;;;;;;;;;6277852;22;20018;-78
2023/10/11 03:06:18;;;;;;;13.57;7.57;;;;;;;;;;6277016;22;20022;-78
2023/10/11 03:08:45;;;;;;;15.00;7.80;;;;;;;;;;6278188;22;20019;-78
2023/10/11 03:11:17;;;;;;;16.50;8.18;;;;;;;;;;6251289;22;20085;-78
2023/10/11 03:13:43;;;;;;;13.70;7.68;;;;;;;;;;6277596;22;20021;-78
2023/10/11 03:16:13;;;;;;;11.48;7.75;;;;;;;;;;6306105;22;20019;-78
2023/10/11 03:18:40;;;;;;;17.58;8.63;;;;;;;;;;6305611;22;20344;-78
2023/10/11 03:21:17;;;;;;;16.92;7.55;;;;;;;;;;6306144;22;20011;-78
2023/10/11 03:23:44;;;;;;;12.57;7.40;;;;;;;;;;6278793;22;20070;-78
2023/10/11 03:26:31;;;;;;;11.40;6.65;;;;;;;;;;6276162;22;20011;-78
2023/10/11 03:29:03;;;;;;;14.95;7.10;;;;;;;;;;6305308;22;20012;-78
2023/10/11 03:31:40;;;;;;;15.10;6.85;;;;;;;;;;6304711;22;20483;-78
2023/10/11 03:34:14;;;;;;;13.10;6.75;;;;;;;;;;6276184;22;20023;-78
2023/10/11 03:36:49;;;;;;;14.40;7.60;;;;;;;;;;6304434;22;20345;-78
2023/10/11 03:39:40;;;;;;;12.65;6.47;;;;;;;;;;6304017;22;20004;-78
2023/10/11 03:44:40;;;;;;;15.13;7.22;;;;;;;;;;6304505;22;20394;-78
2023/10/11 03:47:08;;;;;;;8.90;6.22;;;;;;;;;;6303646;22;20492;-78
2023/10/11 03:52:16;;;;;;;14.00;7.60;;;;;;;;;;6303907;22;20020;-78
2023/10/11 03:54:45;;;;;;;13.90;6.45;;;;;;;;;;6277401;22;20026;-78
2023/10/11 03:57:11;;;;;;;11.50;6.97;;;;;;;;;;6302783;22;20011;-78
2023/10/11 03:59:47;;;;;;;13.73;7.07;;;;;;;;;;6302596;22;20022;-78
2023/10/11 04:02:13;;;;;;;14.13;6.03;;;;;;;;;;6251444;22;21012;-78
2023/10/11 04:04:42;;;;;;;12.20;6.45;;;;;;;;;;6277128;22;20448;-78
2023/10/11 04:07:12;;;;;;;12.02;6.30;;;;;;;;;;6277455;22;20012;-78
2023/10/11 04:09:38;;;;;;;11.77;6.60;;;;;;;;;;6305653;22;20015;-78
2023/10/11 04:12:04;;;;;;;12.38;6.57;;;;;;;;;;6278728;22;20578;-78
2023/10/11 04:14:40;;;;;;;11.30;6.25;;;;;;;;;;6278771;22;20147;-78
2023/10/11 04:19:48;;;;;;;;;;;;;;;;;;6306956;22;20012;-78
2023/10/11 04:22:17;;;;;;;10.52;6.55;;;;;;;;;;6306053;22;20003;-78
2023/10/11 04:24:45;;;;;;;13.98;7.32;;;;;;;;;;6306678;22;20381;-78
2023/10/11 04:29:47;;;;;;;16.52;8.07;;;;;;;;;;6306762;22;20386;-78
2023/10/11 04:32:14;;;;;;;14.30;7.43;;;;;;;;;;6277330;22;20015;-78
2023/10/11 04:34:55;;;;;;;13.32;6.97;;;;;;;;;;6277873;22;20133;-78
2023/10/11 04:37:27;;;;;;;15.63;7.07;;;;;;;;;;6306049;22;20048;-78
2023/10/11 04:40:22;;;;;;;15.32;7.63;;;;;;;;;;6306416;22;20018;-78
2023/10/11 04:42:43;;;;;;;12.07;6.70;;;;;;;;;;6278898;22;20090;-78
2023/10/11 04:45:21;;;;;;;13.50;6.55;;;;;;;;;;6305522;22;20023;-78
2023/10/11 04:47:56;;;;;;;14.82;7.10;;;;;;;;;;6278365;22;20022;-79
2023/10/11 04:50:23;;;;;;;12.98;6.97;;;;;;;;;;6281768;22;20046;-80
2023/10/11 04:52:49;;;;;;;15.93;7.90;;;;;;;;;;6283155;22;20011;-80
2023/10/11 04:55:16;;;;;;;9.40;6.10;;;;;;;;;;6284329;22;20459;-81
2023/10/11 05:00:31;;;;;;;13.27;7.28;;;;;;;;;;6277420;22;20019;-78
2023/10/11 05:03:02;;;;;;;14.23;7.55;;;;;;;;;;6252860;22;20628;-80
2023/10/11 05:05:28;;;;;;;15.27;7.72;;;;;;;;;;6307082;22;20008;-80
2023/10/11 05:08:05;;;;;;;14.35;7.18;;;;;;;;;;6309001;22;20098;-80
2023/10/11 05:10:43;;;;;;;13.63;7.47;;;;;;;;;;6281935;22;20609;-79
2023/10/11 05:13:13;;;;;;;11.15;7.13;;;;;;;;;;6284985;22;20050;-80
2023/10/11 05:15:43;;;;;;;19.17;7.82;;;;;;;;;;6312798;22;20025;-80
2023/10/11 05:18:09;;;;;;;13.50;7.50;;;;;;;;;;6312358;22;20046;-81
2023/10/11 05:23:11;;;;;;;16.13;7.72;;;;;;;;;;6318586;22;20015;-80
2023/10/11 05:25:45;;;;;;;14.30;7.68;;;;;;;;;;6320974;22;20011;-80
2023/10/11 05:31:19;;;;;;;15.48;8.20;;;;;;;;;;6310448;22;20015;-80
2023/10/11 05:33:57;;;;;;;14.27;8.20;;;;;;;;;;6309212;22;20072;-79
2023/10/11 05:52:55;;;;;;;17.20;8.55;;;;;;;;;;6309491;22;20019;-80
2023/10/11 05:55:22;;;;;;;17.52;8.55;;;;;;;;;;6312013;22;20047;-82
2023/10/11 05:57:48;;;;;;;14.75;8.23;;;;;;;;;;6281767;22;20015;-80
2023/10/11 06:00:23;;;;;;;16.65;8.57;;;;;;;;;;6277970;22;20025;-80
2023/10/11 06:02:50;;;;;;;17.23;8.48;;;;;;;;;;6284342;22;20011;-80
2023/10/11 06:05:17;;;;;;;13.70;8.05;;;;;;;;;;6281507;22;20098;-79
2023/10/11 06:07:44;;;;;;;16.25;8.75;;;;;;;;;;6255765;22;20479;-80
2023/10/11 06:10:13;;;;;;;16.27;8.13;;;;;;;;;;6254864;22;20034;-80
2023/10/11 06:12:40;;;;;;;18.60;8.98;;;;;;;;;;6281725;22;20520;-80
2023/10/11 06:15:15;;;;;;;17.55;8.23;;;;;;;;;;6279084;22;20016;-79
2023/10/11 06:17:41;;;;;;;16.25;8.82;;;;;;;;;;6280667;22;20011;-80
2023/10/11 06:20:27;;;;;;;16.70;8.80;;;;;;;;;;6280628;22;20015;-80
2023/10/11 06:22:57;;;;;;;18.52;8.23;;;;;;;;;;6281164;22;20066;-80
2023/10/11 06:25:49;;;;;;;17.83;8.63;;;;;;;;;;6279954;22;20011;-79
2023/10/11 06:28:13;;;;;;;15.55;8.95;;;;;;;;;;6279250;22;20023;-79
2023/10/11 06:30:39;;;;;;;17.52;8.57;;;;;;;;;;6280546;22;20038;-79
2023/10/11 06:33:07;;;;;;;16.55;9.13;;;;;;;;;;6279077;22;20463;-79
2023/10/11 06:35:43;;;;;;;15.35;9.13;;;;;;;;;;6279251;22;20072;-80
2023/10/11 06:38:09;;;;;;;;;;;;;;;;;;6280931;22;20476;-79
2023/10/11 06:40:47;;;;;;;19.52;9.30;;;;;;;;;;6254407;22;19917;-79
2023/10/11 06:43:13;;;;;;;18.17;9.35;;;;;;;;;;6280257;22;20035;-80
2023/10/11 06:45:41;;;;;;;21.45;9.48;;;;;;;;;;6274454;22;20040;-79
2023/10/11 06:48:08;;;;;;;21.27;10.25;;;;;;;;;;6307330;22;20015;-79
2023/10/11 06:50:38;;;;;;;17.33;9.20;;;;;;;;;;6306077;22;20011;-79
2023/10/11 06:53:08;;;;;;;20.23;9.80;;;;;;;;;;6277465;22;20050;-79
2023/10/11 06:55:35;;;;;;;18.25;9.95;;;;;;;;;;6251872;22;20015;-78
2023/10/11 06:58:08;;;;;;;17.58;9.60;;;;;;;;;;6305650;22;20015;-79
2023/10/11 07:00:38;;;;;;;14.52;9.23;;;;;;;;;;6304001;22;20443;-79
2023/10/11 07:03:26;;;;;;;19.88;9.88;;;;;;;;;;6276352;22;20015;-79
2023/10/11 07:06:10;;;;;;;17.45;9.60;;;;;;;;;;6253655;22;20011;-80
2023/10/11 07:08:36;;;;;;;17.48;9.13;;;;;;;;;;6281196;22;20027;-80
2023/10/11 07:13:30;;;;;;;18.85;9.55;;;;;;;;;;6282102;22;20019;-81
2023/10/11 07:16:06;;;;;;;16.15;9.38;;;;;;;;;;6283784;22;20026;-82
2023/10/11 07:18:39;;;;;;;17.75;8.93;;;;;;;;;;6284080;22;20070;-82
2023/10/11 07:21:07;;;;;;;16.55;10.15;;;;;;;;;;6283790;22;20337;-81
2023/10/11 07:23:46;;;;;;;19.02;10.60;;;;;;;;;;6282617;22;20015;-81
2023/10/11 07:26:48;;;;;;;14.23;8.45;;;;;;;;;;6311235;22;20019;-81
2023/10/11 07:29:12;;;;;;;17.27;9.25;;;;;;;;;;6312829;22;20019;-82
2023/10/11 07:31:48;;;;;;;15.45;8.30;;;;;;;;;;6311796;22;20011;-82
2023/10/11 07:34:17;;;;;;;17.13;9.30;;;;;;;;;;6309176;22;20487;-84
2023/10/11 07:36:44;;;;;;;17.63;9.32;;;;;;;;;;6279498;22;20019;-82
2023/10/11 07:39:25;;;;;;;21.45;9.57;;;;;;;;;;6309802;22;20460;-82
2023/10/11 07:44:50;;;;;;;20.90;9.73;;;;;;;;;;6263236;22;20015;-80
2023/10/11 07:47:16;;;;;;;22.30;10.25;;;;;;;;;;6310157;22;20038;-80
2023/10/11 07:49:43;;;;;;;21.30;10.10;;;;;;;;;;6309657;22;20015;-79
2023/10/11 07:52:09;;;;;;;17.83;10.10;;;;;;;;;;6282313;22;20027;-79
2023/10/11 07:54:36;;;;;;;17.65;9.85;;;;;;;;;;6311528;22;20035;-82
2023/10/11 07:57:03;;;;;;;21.20;10.30;;;;;;;;;;6284023;22;20046;-80
2023/10/11 07:59:30;;;;;;;21.63;10.55;;;;;;;;;;6281262;22;20027;-79
2023/10/11 08:02:08;;;;;;;23.73;12.00;;;;;;;;;;6309015;22;20011;-79
2023/10/11 08:04:35;;;;;;;29.90;12.50;;;;;;;;;;6309524;22;20015;-80
2023/10/11 08:07:06;;;;;;;21.23;10.90;;;;;;;;;;6283275;22;20065;-80
2023/10/11 08:09:45;;;;;;;20.55;12.07;;;;;;;;;;6312207;22;20376;-80
2023/10/11 08:12:13;;;;;;;21.88;10.80;;;;;;;;;;6311623;22;20043;-81
2023/10/11 08:14:44;;;;;;;22.52;11.55;;;;;;;;;;6282930;22;20016;-80
2023/10/11 08:17:10;;;;;;;22.20;10.27;;;;;;;;;;6310504;22;20086;-80
2023/10/11 08:19:37;;;;;;;22.40;11.07;;;;;;;;;;6311904;22;20012;-80
2023/10/11 08:22:09;;;;;;;21.63;11.50;;;;;;;;;;6311059;22;20015;-79
2023/10/11 08:24:58;;;;;;;25.17;12.80;;;;;;;;;;6310456;22;20015;-80
2023/10/11 08:27:28;;;;;;;22.50;11.73;;;;;;;;;;6309534;22;20042;-80
2023/10/11 08:30:17;;;;;;;29.70;12.63;;;;;;;;;;6279771;22;20019;-82
2023/10/11 08:32:43;;;;;;;23.67;12.43;;;;;;;;;;6311155;22;20483;-81
2023/10/11 08:35:11;;;;;;;31.13;13.48;;;;;;;;;;6311163;22;20027;-82
2023/10/11 08:37:37;;;;;;;23.45;11.98;;;;;;;;;;6283447;22;20011;-82
2023/10/11 08:40:20;;;;;;;19.77;12.25;;;;;;;;;;6283647;22;20444;-83
2023/10/11 08:42:49;;;;;;;23.60;13.15;;;;;;;;;;6282763;22;20011;-82
2023/10/11 08:45:20;;;;;;;24.52;12.80;;;;;;;;;;6258403;22;20012;-83
2023/10/11 08:47:46;;;;;;;22.23;12.52;;;;;;;;;;6284552;22;20015;-82
2023/10/11 08:50:17;;;;;;;22.15;12.13;;;;;;;;;;6282009;22;20011;-82
2023/10/11 08:52:43;;;;;;;25.55;13.65;;;;;;;;;;6312130;22;20030;-83
2023/10/11 08:55:12;;;;;;;25.30;13.35;;;;;;;;;;6309811;22;20026;-83
2023/10/11 08:57:39;;;;;;;23.52;14.23;;;;;;;;;;6282505;22;20018;-83
2023/10/11 09:00:17;;;;;;;22.40;12.75;;;;;;;;;;6280826;22;20332;-83
2023/10/11 09:02:48;;;;;;;27.17;13.10;;;;;;;;;;6313301;22;20011;-82
2023/10/11 09:05:32;;;;;;;25.33;13.77;;;;;;;;;;6330161;22;20019;-81
2023/10/11 09:08:04;;;;;;;21.75;11.02;;;;;;;;;;6314319;22;20018;-82
2023/10/11 09:10:33;;;;;;;25.27;13.25;;;;;;;;;;6313404;22;20314;-80
2023/10/11 09:13:01;;;;;;;23.08;12.10;;;;;;;;;;6311922;22;20015;-81
2023/10/11 09:15:40;;;;;;;24.05;11.15;;;;;;;;;;6284405;22;20015;-81
2023/10/11 09:18:14;;;;;;;21.98;11.98;;;;;;;;;;6283788;22;20018;-81
2023/10/11 09:20:41;;;;;;;22.45;11.18;;;;;;;;;;6311962;22;20080;-82
2023/10/11 09:23:08;;;;;;;21.42;10.85;;;;;;;;;;6283232;22;20015;-82
2023/10/11 09:25:59;;;;;;;19.52;11.18;;;;;;;;;;6285518;22;20055;-82
2023/10/11 09:28:33;;;;;;;19.40;10.20;;;;;;;;;;6281696;22;20038;-82
2023/10/11 09:31:14;;;;;;;21.30;11.02;;;;;;;;;;6308710;22;20015;-82
2023/10/11 09:33:40;;;;;;;24.42;11.80;;;;;;;;;;6282212;22;20026;-83
2023/10/11 09:36:07;;;;;;;25.80;12.82;;;;;;;;;;6310410;22;20278;-82
2023/10/11 09:38:39;;;;;;;18.75;10.30;;;;;;;;;;6282766;22;20095;-83
2023/10/11 09:41:09;;;;;;;16.02;9.27;;;;;;;;;;6309980;22;20011;-83
2023/10/11 09:43:43;;;;;;;18.45;9.57;;;;;;;;;;6284120;22;20015;-82
2023/10/11 09:46:13;;;;;;;20.50;10.85;;;;;;;;;;6313606;22;20086;-83
2023/10/11 09:48:42;;;;;;;23.63;10.85;;;;;;;;;;6261376;22;20018;-83
2023/10/11 09:51:15;;;;;;;21.55;11.52;;;;;;;;;;6285443;22;20088;-83
2023/10/11 09:53:42;;;;;;;21.92;11.32;;;;;;;;;;6285563;22;20019;-83
2023/10/11 09:56:15;;;;;;;16.15;9.38;;;;;;;;;;6281524;22;20478;-83
2023/10/11 09:59:00;;;;;;;20.10;9.25;;;;;;;;;;6281136;22;20448;-81
2023/10/11 10:01:38;;;;;;;19.52;9.23;;;;;;;;;;6308559;22;20038;-84
2023/10/11 10:04:09;;;;;;;14.85;7.80;;;;;;;;;;6283552;22;20478;-83
2023/10/11 10:06:35;;;;;;;13.88;7.93;;;;;;;;;;6310511;22;20018;-83
2023/10/11 10:09:16;;;;;;;15.00;6.97;;;;;;;;;;6284078;22;20015;-80
2023/10/11 10:12:09;;;;;;;15.57;7.38;;;;;;;;;;6312350;22;20503;-82
2023/10/11 10:14:35;;;;;;;16.40;8.35;;;;;;;;;;6312000;22;20015;-82
2023/10/11 10:17:11;;;;;;;12.30;7.03;;;;;;;;;;6311276;22;20012;-82
2023/10/11 10:19:42;;;;;;;15.95;5.90;;;;;;;;;;6311191;22;20385;-82
2023/10/11 10:22:10;;;;;;;12.45;6.10;;;;;;;;;;6311272;22;20064;-83
2023/10/11 10:24:36;;;;;;;10.00;5.57;;;;;;;;;;6312208;22;20011;-81
2023/10/11 10:27:22;;;;;;;7.78;4.53;;;;;;;;;;6310737;22;20070;-83
2023/10/11 10:29:59;;;;;;;7.63;4.60;;;;;;;;;;6312749;22;20019;-82
2023/10/11 10:32:25;;;;;;;11.82;4.80;;;;;;;;;;6283235;22;20015;-82
2023/10/11 10:35:11;;;;;;;11.30;5.47;;;;;;;;;;6315044;22;20011;-83
2023/10/11 10:37:47;;;;;;;9.35;4.22;;;;;;;;;;6312382;22;20015;-82
2023/10/11 10:40:24;;;;;;;7.32;3.63;;;;;;;;;;6256738;22;20115;-81
2023/10/11 10:43:10;;;;;;;8.18;4.53;;;;;;;;;;6280964;22;20432;-80
2023/10/11 10:45:36;;;;;;;7.97;4.53;;;;;;;;;;6281665;22;20339;-87
2023/10/11 10:48:40;;;;;;;8.77;4.35;;;;;;;;;;6253452;22;20061;-88
2023/10/11 10:51:07;;;;;;;9.75;4.47;;;;;;;;;;6230675;22;20015;-82
2023/10/11 10:53:42;;;;;;;6.95;3.70;;;;;;;;;;6311299;22;20019;-82
2023/10/11 10:56:29;;;;;;;8.00;4.10;;;;;;;;;;6311805;22;20046;-82
2023/10/11 10:59:07;;;;;;;7.45;3.83;;;;;;;;;;6314734;22;20064;-84
2023/10/11 11:01:34;;;;;;;6.88;4.43;;;;;;;;;;6313382;22;20050;-82
2023/10/11 11:04:00;;;;;;;7.50;3.75;;;;;;;;;;6310475;22;20761;-82
2023/10/11 11:06:37;;;;;;;7.60;4.28;;;;;;;;;;6310685;22;20078;-83
2023/10/11 11:09:04;;;;;;;6.65;3.97;;;;;;;;;;6309749;22;20015;-84
2023/10/11 11:11:35;;;;;;;8.07;3.70;;;;;;;;;;6284222;22;20478;-81
2023/10/11 11:14:09;;;;;;;6.78;3.50;;;;;;;;;;6311125;22;20023;-82
2023/10/11 11:16:39;;;;;;;8.38;3.50;;;;;;;;;;6310675;22;20344;-84
2023/10/11 11:19:16;;;;;;;6.35;3.22;;;;;;;;;;6311049;22;20318;-82
2023/10/11 11:21:44;;;;;;;7.00;3.15;;;;;;;;;;6312297;22;20012;-82
2023/10/11 11:24:41;;;;;;;5.80;2.92;;;;;;;;;;6311198;22;20510;-82
2023/10/11 11:27:06;;;;;;;4.45;2.75;;;;;;;;;;6283201;22;20044;-81
2023/10/11 11:29:32;;;;;;;4.88;3.15;;;;;;;;;;6284555;22;20082;-81
2023/10/11 11:31:59;;;;;;;5.95;2.60;;;;;;;;;;6283895;22;20046;-82
2023/10/11 11:34:37;;;;;;;3.40;2.25;;;;;;;;;;6257243;22;20027;-82
2023/10/11 11:37:07;;;;;;;4.63;2.65;;;;;;;;;;6281636;22;20068;-81
2023/10/11 11:39:39;;;;;;;9.93;4.13;;;;;;;;;;6310041;22;20016;-81
2023/10/11 11:42:24;;;;;;;7.47;3.10;;;;;;;;;;6283210;22;20020;-82
2023/10/11 11:44:51;;;;;;;3.92;2.30;;;;;;;;;;6312141;22;20440;-83
2023/10/11 11:47:23;;;;;;;6.05;2.45;;;;;;;;;;6257178;22;20023;-83
2023/10/11 11:49:49;;;;;;;4.25;2.83;;;;;;;;;;6310183;22;20064;-84
2023/10/11 11:52:18;;;;;;;4.60;2.22;;;;;;;;;;6309454;22;20023;-83
2023/10/11 11:54:44;;;;;;;10.35;3.33;;;;;;;;;;6257470;22;20509;-82
2023/10/11 11:57:10;;;;;;;3.35;2.10;;;;;;;;;;6309231;22;20011;-83
2023/10/11 11:59:38;;;;;;;5.25;2.63;;;;;;;;;;6283974;22;20078;-83
2023/10/11 12:02:09;;;;;;;6.05;2.38;;;;;;;;;;6310599;22;20440;-82
2023/10/11 12:04:36;;;;;;;3.80;2.40;;;;;;;;;;6311757;22;20365;-81
2023/10/11 12:07:09;;;;;;;5.03;2.42;;;;;;;;;;6310927;22;20026;-81
2023/10/11 12:09:35;;;;;;;5.78;2.70;;;;;;;;;;6282272;22;20516;-82
2023/10/11 12:12:05;;;;;;;5.20;2.75;;;;;;;;;;6282913;22;20011;-83
2023/10/11 12:14:38;;;;;;;4.45;3.20;;;;;;;;;;6312136;22;20011;-83
2023/10/11 12:17:09;;;;;;;5.70;2.75;;;;;;;;;;6256900;22;20019;-81
2023/10/11 12:19:44;;;;;;;5.85;2.67;;;;;;;;;;6283112;22;20011;-82
2023/10/11 12:22:13;;;;;;;5.75;2.78;;;;;;;;;;6282990;22;20333;-82
2023/10/11 12:24:44;;;;;;;5.72;2.40;;;;;;;;;;6283314;22;20064;-83
2023/10/11 12:27:11;;;;;;;5.45;3.10;;;;;;;;;;6283848;22;20554;-81
2023/10/11 12:29:37;;;;;;;7.47;2.92;;;;;;;;;;6283775;22;20011;-81
2023/10/11 12:32:04;;;;;;;6.90;2.85;;;;;;;;;;6311027;22;20011;-82
2023/10/11 12:34:32;;;;;;;9.05;2.72;;;;;;;;;;6312866;22;20019;-81
2023/10/11 12:37:00;;;;;;;4.38;2.85;;;;;;;;;;6284090;22;20019;-81
2023/10/11 12:39:31;;;;;;;6.13;3.22;;;;;;;;;;6285548;22;20094;-84
2023/10/11 12:41:59;;;;;;;4.32;2.92;;;;;;;;;;6311629;22;20012;-81
2023/10/11 12:44:28;;;;;;;7.88;3.25;;;;;;;;;;6285393;22;20029;-82
2023/10/11 12:46:54;;;;;;;7.10;3.03;;;;;;;;;;6312086;22;20015;-83
2023/10/11 12:49:20;;;;;;;7.68;3.33;;;;;;;;;;6284676;22;20099;-82
2023/10/11 12:51:47;;;;;;;4.35;2.28;;;;;;;;;;6286464;22;20019;-82
2023/10/11 12:54:19;;;;;;;6.07;2.20;;;;;;;;;;6283863;22;20011;-83
2023/10/11 12:56:45;;;;;;;3.90;2.25;;;;;;;;;;6284610;22;20025;-83
2023/10/11 12:59:15;;;;;;;5.53;2.40;;;;;;;;;;6283385;22;20015;-81
2023/10/11 13:01:49;;;;;;;4.95;2.50;;;;;;;;;;6312732;22;20018;-82
2023/10/11 13:04:23;;;;;;;4.38;2.53;;;;;;;;;;6311294;22;20019;-83
2023/10/11 13:06:50;;;;;;;6.95;2.60;;;;;;;;;;6312249;22;20086;-82
2023/10/11 13:09:21;;;;;;;2.58;1.90;;;;;;;;;;6311349;22;20011;-81
2023/10/11 13:11:48;;;;;;;5.55;2.80;;;;;;;;;;6311947;22;20079;-82
2023/10/11 13:14:20;;;;;;;4.93;3.42;;;;;;;;;;6311759;22;20022;-83
2023/10/11 13:16:54;;;;;;;3.95;2.00;;;;;;;;;;6313432;22;20015;-81
2023/10/11 13:19:20;;;;;;;3.42;2.30;;;;;;;;;;6312707;22;20069;-81
2023/10/11 13:21:49;;;;;;;7.25;2.50;;;;;;;;;;6313300;22;20007;-81
2023/10/11 13:24:22;;;;;;;5.88;2.45;;;;;;;;;;6312218;22;20011;-81
2023/10/11 13:26:51;;;;;;;4.47;2.15;;;;;;;;;;6312472;22;20015;-81
2023/10/11 13:29:18;;;;;;;3.58;2.40;;;;;;;;;;6283928;22;20019;-82
2023/10/11 13:31:53;;;;;;;5.22;2.05;;;;;;;;;;6311740;22;20011;-83
2023/10/11 13:34:19;;;;;;;3.53;2.05;;;;;;;;;;6282685;22;20011;-82
2023/10/11 13:36:45;;;;;;;2.80;1.75;;;;;;;;;;6258371;22;20064;-82
2023/10/11 13:39:26;;;;;;;2.88;1.75;;;;;;;;;;6311102;22;20022;-81
2023/10/11 13:42:04;;;;;;;4.07;2.15;;;;;;;;;;6312888;22;20019;-82
2023/10/11 13:44:32;;;;;;;3.17;1.80;;;;;;;;;;6319121;22;20034;-81
2023/10/11 13:46:59;;;;;;;4.40;1.70;;;;;;;;;;6298831;22;20011;-82
2023/10/11 13:49:26;;;;;;;3.42;1.80;;;;;;;;;;6323806;22;20022;-81
2023/10/11 13:52:03;;;;;;;5.13;2.28;;;;;;;;;;6298638;22;20019;-82
2023/10/11 13:54:38;;;;;;;4.00;1.77;;;;;;;;;;6317000;22;20011;-80
2023/10/11 13:57:10;;;;;;;4.75;1.92;;;;;;;;;;6315146;22;20082;-82
2023/10/11 13:59:37;;;;;;;2.85;1.80;;;;;;;;;;6317610;22;20076;-81
2023/10/11 14:04:49;;;;;;;2.63;1.95;;;;;;;;;;6291365;22;20016;-81
2023/10/11 14:07:23;;;;;;;3.72;1.98;;;;;;;;;;6325076;22;20042;-81
2023/10/11 14:09:53;;;;;;;5.97;2.20;;;;;;;;;;6321557;22;20011;-82
2023/10/11 14:12:21;;;;;;;8.20;2.03;;;;;;;;;;6321286;22;20011;-83
2023/10/11 14:14:47;;;;;;;4.05;2.03;;;;;;;;;;6300410;22;20467;-82
2023/10/11 14:17:15;;;;;;;4.75;1.85;;;;;;;;;;6328334;22;20001;-82
2023/10/11 14:19:41;;;;;;;6.22;2.05;;;;;;;;;;6292140;22;20007;-83
2023/10/11 14:22:07;;;;;;;4.40;2.50;;;;;;;;;;6290383;22;20019;-81
2023/10/11 14:24:35;;;;;;;6.20;2.25;;;;;;;;;;6290799;22;20022;-82
2023/10/11 14:27:05;;;;;;;6.63;3.08;;;;;;;;;;6291547;22;20015;-83
2023/10/11 14:29:31;;;;;;;4.70;2.65;;;;;;;;;;6265817;22;20027;-82
2023/10/11 14:31:57;;;;;;;3.97;2.85;;;;;;;;;;6291499;22;20015;-83
2023/10/11 14:34:23;;;;;;;4.63;2.42;;;;;;;;;;6317077;22;20027;-81
2023/10/11 14:36:50;;;;;;;5.05;2.50;;;;;;;;;;6288241;22;20061;-82
2023/10/11 14:39:19;;;;;;;4.30;2.22;;;;;;;;;;6314186;22;20015;-81
2023/10/11 14:41:55;;;;;;;4.70;2.35;;;;;;;;;;6287577;22;20345;-81
2023/10/11 14:44:22;;;;;;;4.13;2.42;;;;;;;;;;6287435;22;20011;-81
2023/10/11 14:46:49;;;;;;;5.63;2.25;;;;;;;;;;6263007;22;20021;-81
2023/10/11 14:49:20;;;;;;;5.35;3.33;;;;;;;;;;6286640;22;20343;-81
2023/10/11 14:51:46;;;;;;;8.70;3.65;;;;;;;;;;6286253;22;20348;-82
2023/10/11 14:54:12;;;;;;;7.00;2.85;;;;;;;;;;6285472;22;20011;-81
2023/10/11 14:56:38;;;;;;;4.53;2.70;;;;;;;;;;6285736;22;20015;-81
2023/10/11 14:59:04;;;;;;;5.30;2.85;;;;;;;;;;6284543;22;20064;-81
2023/10/11 15:01:33;;;;;;;4.75;2.83;;;;;;;;;;6312780;22;20011;-82
2023/10/11 15:04:12;;;;;;;6.65;3.05;;;;;;;;;;6284624;22;20428;-81
2023/10/11 15:06:45;;;;;;;2.92;2.30;;;;;;;;;;6286680;22;20011;-81
2023/10/11 15:09:11;;;;;;;4.95;2.70;;;;;;;;;;6312390;22;20014;-84
2023/10/11 15:11:38;;;;;;;4.75;2.35;;;;;;;;;;6284789;22;20018;-81
2023/10/11 15:14:07;;;;;;;5.57;2.53;;;;;;;;;;6257805;22;20018;-82
2023/10/11 15:16:34;;;;;;;5.90;2.47;;;;;;;;;;6258280;22;20015;-81
2023/10/11 15:19:01;;;;;;;4.65;2.40;;;;;;;;;;6284866;22;20015;-81
2023/10/11 15:21:28;;;;;;;4.07;2.28;;;;;;;;;;6285987;22;20072;-81
2023/10/11 15:23:54;;;;;;;4.72;3.20;;;;;;;;;;6284245;22;20344;-82
2023/10/11 15:26:21;;;;;;;4.57;2.53;;;;;;;;;;6285859;22;20011;-81
2023/10/11 15:28:53;;;;;;;5.13;2.33;;;;;;;;;;6284275;22;20021;-83
2023/10/11 15:31:20;;;;;;;5.03;2.30;;;;;;;;;;6283679;22;20015;-82
2023/10/11 15:33:46;;;;;;;4.95;2.00;;;;;;;;;;6285307;22;20019;-81
2023/10/11 15:36:12;;;;;;;4.03;1.85;;;;;;;;;;6284282;22;20087;-81